createdAt,value
2022-10-22T00:02:27.709Z,98388.81
2022-10-22T00:04:56.915Z,98393.41
2022-10-22T00:07:23.804Z,98397.28
2022-10-22T00:09:50.486Z,98397.97
2022-10-22T00:12:17.949Z,98394.38
2022-10-22T00:14:44.721Z,98393.16
2022-10-22T00:17:11.804Z,98399.09
2022-10-22T00:19:39.324Z,98389.19
2022-10-22T00:22:07.073Z,98377.06
2022-10-22T00:24:35.707Z,98369.63
2022-10-22T00:27:03.616Z,98376.31
2022-10-22T00:29:30.366Z,98367.16
2022-10-22T00:31:57.124Z,98361.31
2022-10-22T00:34:24.420Z,98360.47
2022-10-22T00:36:52.073Z,98361.31
2022-10-22T00:39:24.180Z,98369.84
2022-10-22T00:41:53.316Z,98359.22
2022-10-22T00:45:08.484Z,98349.06
2022-10-22T00:48:04.441Z,98349.16
2022-10-22T00:50:57.268Z,98357.25
2022-10-22T00:53:32.752Z,98356.50
2022-10-22T00:55:59.621Z,98349.53
2022-10-22T00:58:31.493Z,98354.00
2022-10-22T01:00:58.558Z,98358.75
2022-10-22T01:03:25.397Z,98360.69
2022-10-22T01:05:58.810Z,98364.66
2022-10-22T01:08:48.010Z,98360.94
2022-10-22T01:11:52.512Z,98368.41
2022-10-22T01:14:27.722Z,98369.63
2022-10-22T01:17:34.131Z,98357.84
2022-10-22T01:20:33.899Z,98352.16
2022-10-22T01:23:33.642Z,98360.56
2022-10-22T01:26:15.496Z,98363.19
2022-10-22T01:28:51.273Z,98355.38
2022-10-22T01:31:19.984Z,98362.06
2022-10-22T01:33:49.250Z,98371.09
2022-10-22T01:36:17.630Z,98374.81
2022-10-22T01:38:46.052Z,98382.50
2022-10-22T01:41:13.944Z,98381.16
2022-10-22T01:43:40.504Z,98382.00
2022-10-22T01:46:10.152Z,98379.31
2022-10-22T01:49:02.953Z,98371.84
2022-10-22T01:51:54.437Z,98370.13
2022-10-22T01:54:39.949Z,98372.00
2022-10-22T01:57:42.233Z,98380.56
2022-10-22T02:00:13.646Z,98386.09
2022-10-22T02:03:09.755Z,98389.94
2022-10-22T02:05:47.797Z,98380.28
2022-10-22T02:08:20.629Z,98380.56
2022-10-22T02:10:48.477Z,98369.16
2022-10-22T02:13:23.493Z,98365.44
2022-10-22T02:15:53.887Z,98369.16
2022-10-22T02:18:25.189Z,98371.63
2022-10-22T02:20:52.874Z,98355.97
2022-10-22T02:23:21.355Z,98362.41
2022-10-22T02:25:54.107Z,98355.31
2022-10-22T02:28:38.365Z,98363.78
2022-10-22T02:31:19.107Z,98367.38
2022-10-22T02:33:49.484Z,98358.06
2022-10-22T02:36:17.279Z,98356.22
2022-10-22T02:38:46.011Z,98365.38
2022-10-22T02:41:12.760Z,98389.63
2022-10-22T02:43:44.891Z,98374.53
2022-10-22T02:46:12.154Z,98389.28
2022-10-22T02:48:38.723Z,98394.75
2022-10-22T02:51:05.531Z,98382.97
2022-10-22T02:53:32.563Z,98390.19
2022-10-22T02:55:59.563Z,98388.44
2022-10-22T02:58:26.181Z,98387.44
2022-10-22T03:00:52.839Z,98386.97
2022-10-22T03:03:19.430Z,98392.66
2022-10-22T03:05:46.060Z,98390.91
2022-10-22T03:08:13.392Z,98392.19
2022-10-22T03:10:39.949Z,98382.13
2022-10-22T03:13:06.608Z,98380.25
2022-10-22T03:15:33.271Z,98392.31
2022-10-22T03:17:59.895Z,98393.16
2022-10-22T03:20:26.588Z,98389.84
2022-10-22T03:22:53.572Z,98401.25
2022-10-22T03:25:24.290Z,98395.78
2022-10-22T03:27:54.415Z,98396.91
2022-10-22T03:30:21.371Z,98413.13
2022-10-22T03:32:47.980Z,98405.81
2022-10-22T03:35:14.607Z,98407.03
2022-10-22T03:37:41.651Z,98401.63
2022-10-22T03:40:11.370Z,98412.75
2022-10-22T03:42:38.218Z,98406.66
2022-10-22T03:45:05.969Z,98416.19
2022-10-22T03:47:32.590Z,98429.00
2022-10-22T03:49:59.845Z,98438.38
2022-10-22T03:52:26.557Z,98433.56
2022-10-22T03:54:53.209Z,98431.09
2022-10-22T03:57:19.793Z,98442.84
2022-10-22T03:59:47.135Z,98448.88
2022-10-22T04:02:14.167Z,98446.91
2022-10-22T04:04:40.747Z,98443.47
2022-10-22T04:07:08.368Z,98454.34
2022-10-22T04:09:35.697Z,98445.69
2022-10-22T04:12:02.405Z,98440.69
2022-10-22T04:14:28.988Z,98451.41
2022-10-22T04:16:55.627Z,98455.59
2022-10-22T04:19:22.324Z,98463.25
2022-10-22T04:21:49.000Z,98464.00
2022-10-22T04:24:15.905Z,98477.03
2022-10-22T04:26:42.695Z,98472.94
2022-10-22T04:29:13.437Z,98474.41
2022-10-22T04:31:42.664Z,98468.72
2022-10-22T04:34:09.366Z,98461.53
2022-10-22T04:36:35.940Z,98444.78
2022-10-22T04:39:03.933Z,98449.63
2022-10-22T04:41:36.712Z,98462.44
2022-10-22T04:44:04.392Z,98463.25
2022-10-22T04:46:33.384Z,98471.44
2022-10-22T04:49:00.813Z,98474.03
2022-10-22T04:51:27.884Z,98483.41
2022-10-22T04:53:55.172Z,98482.34
2022-10-22T04:56:30.637Z,98474.38
2022-10-22T04:59:00.579Z,98480.53
2022-10-22T05:01:41.718Z,98470.00
2022-10-22T05:04:14.240Z,98477.78
2022-10-22T05:06:41.202Z,98483.09
2022-10-22T05:09:14.818Z,98477.84
2022-10-22T05:11:48.464Z,98478.41
2022-10-22T05:14:20.268Z,98477.53
2022-10-22T05:16:48.375Z,98476.31
2022-10-22T05:19:23.913Z,98478.06
2022-10-22T05:21:52.658Z,98479.59
2022-10-22T05:24:19.392Z,98478.88
2022-10-22T05:26:49.536Z,98480.94
2022-10-22T05:29:16.194Z,98483.78
2022-10-22T05:31:42.780Z,98482.94
2022-10-22T05:34:09.542Z,98482.59
2022-10-22T05:36:36.434Z,98490.50
2022-10-22T05:39:03.760Z,98493.00
2022-10-22T05:41:30.373Z,98502.03
2022-10-22T05:43:59.464Z,98504.63
2022-10-22T05:46:32.657Z,98508.47
2022-10-22T05:49:02.392Z,98517.13
2022-10-22T05:51:31.808Z,98520.75
2022-10-22T05:54:01.976Z,98512.63
2022-10-22T05:56:31.878Z,98517.22
2022-10-22T05:58:58.877Z,98520.56
2022-10-22T06:01:31.993Z,98522.75
2022-10-22T06:04:02.365Z,98519.03
2022-10-22T06:06:45.646Z,98523.47
2022-10-22T06:09:24.094Z,98522.22
2022-10-22T06:11:51.624Z,98521.50
2022-10-22T06:14:24.709Z,98526.91
2022-10-22T06:16:52.258Z,98519.47
2022-10-22T06:19:21.086Z,98533.00
2022-10-22T06:21:48.136Z,98535.63
2022-10-22T06:24:15.539Z,98537.09
2022-10-22T06:26:42.297Z,98545.81
2022-10-22T06:29:09.012Z,98546.47
2022-10-22T06:31:38.518Z,98552.16
2022-10-22T06:34:08.338Z,98553.28
2022-10-22T06:36:35.280Z,98554.53
2022-10-22T06:39:03.273Z,98559.25
2022-10-22T06:41:29.904Z,98558.22
2022-10-22T06:43:57.519Z,98565.56
2022-10-22T06:46:25.605Z,98574.75
2022-10-22T06:48:56.554Z,98577.44
2022-10-22T06:51:24.205Z,98578.19
2022-10-22T06:53:51.261Z,98581.06
2022-10-22T06:56:21.408Z,98582.00
2022-10-22T06:58:53.756Z,98590.06
2022-10-22T07:01:24.539Z,98597.16
2022-10-22T07:03:52.376Z,98602.59
2022-10-22T07:06:20.845Z,98594.34
2022-10-22T07:08:47.663Z,98605.03
2022-10-22T07:11:20.362Z,98615.56
2022-10-22T07:13:48.145Z,98616.81
2022-10-22T07:16:16.094Z,98633.94
2022-10-22T07:18:43.463Z,98631.84
2022-10-22T07:21:12.223Z,98641.41
2022-10-22T07:23:39.321Z,98635.16
2022-10-22T07:26:07.397Z,98636.34
2022-10-22T07:28:36.473Z,98647.53
2022-10-22T07:31:03.625Z,98646.56
2022-10-22T07:33:30.170Z,98649.50
2022-10-22T07:36:02.628Z,98663.91
2022-10-22T07:38:31.437Z,98657.69
2022-10-22T07:40:58.802Z,98661.19
2022-10-22T07:43:25.711Z,98661.09
2022-10-22T07:45:52.898Z,98662.97
2022-10-22T07:48:19.476Z,98665.47
2022-10-22T07:50:46.126Z,98673.47
2022-10-22T07:53:12.728Z,98679.16
2022-10-22T07:55:39.309Z,98680.34
2022-10-22T07:58:05.897Z,98685.81
2022-10-22T08:00:32.605Z,98696.50
2022-10-22T08:02:59.170Z,98697.56
2022-10-22T08:05:25.967Z,98699.31
2022-10-22T08:07:52.538Z,98705.59
2022-10-22T08:10:19.242Z,98700.22
2022-10-22T08:12:45.995Z,98703.13
2022-10-22T08:15:12.599Z,98700.97
2022-10-22T08:17:39.562Z,98715.63
2022-10-22T08:20:07.303Z,98711.34
2022-10-22T08:22:33.930Z,98715.28
2022-10-22T08:25:00.538Z,98709.44
2022-10-22T08:27:27.447Z,98718.03
2022-10-22T08:29:54.166Z,98727.66
2022-10-22T08:32:20.832Z,98730.13
2022-10-22T08:34:47.418Z,98726.50
2022-10-22T08:37:14.327Z,98728.31
2022-10-22T08:39:41.608Z,98731.94
2022-10-22T08:42:34.016Z,98735.72
2022-10-22T08:45:25.171Z,98751.22
2022-10-22T08:48:34.436Z,98744.59
2022-10-22T08:51:01.057Z,98747.22
2022-10-22T08:53:43.978Z,98744.28
2022-10-22T08:56:10.646Z,98744.19
2022-10-22T08:59:05.865Z,98754.78
2022-10-22T09:01:41.662Z,98746.19
2022-10-22T09:04:14.870Z,98752.09
2022-10-22T09:06:44.193Z,98754.16
2022-10-22T09:09:18.361Z,98768.03
2022-10-22T09:11:55.273Z,98766.19
2022-10-22T09:14:24.846Z,98765.00
2022-10-22T09:17:00.348Z,98769.34
2022-10-22T09:19:57.816Z,98762.50
2022-10-22T09:22:44.917Z,98771.38
2022-10-22T09:25:20.749Z,98765.66
2022-10-22T09:27:48.912Z,98767.59
2022-10-22T09:30:25.221Z,98773.50
2022-10-22T09:33:01.318Z,98772.47
2022-10-22T09:35:28.685Z,98774.41
2022-10-22T09:37:57.041Z,98767.66
2022-10-22T09:40:24.050Z,98768.38
2022-10-22T09:42:51.177Z,98777.81
2022-10-22T09:45:26.118Z,98774.56
2022-10-22T09:48:28.338Z,98774.75
2022-10-22T09:51:44.322Z,98764.75
2022-10-22T09:54:34.177Z,98772.50
2022-10-22T09:57:17.438Z,98778.03
2022-10-22T09:59:50.626Z,98784.06
2022-10-22T10:02:38.109Z,98780.59
2022-10-22T10:05:07.068Z,98777.09
2022-10-22T10:07:35.998Z,98781.84
2022-10-22T10:10:16.915Z,98790.84
2022-10-22T10:13:07.634Z,98795.91
2022-10-22T10:16:31.767Z,98797.44
2022-10-22T10:19:07.978Z,98786.31
2022-10-22T10:22:15.382Z,98794.13
2022-10-22T10:24:55.405Z,98798.03
2022-10-22T10:27:48.710Z,98790.59
2022-10-22T10:30:19.446Z,98782.22
2022-10-22T10:33:27.494Z,98796.91
2022-10-22T10:36:31.056Z,98786.66
2022-10-22T10:39:20.497Z,98787.84
2022-10-22T10:42:26.399Z,98788.38
2022-10-22T10:45:31.662Z,98790.22
2022-10-22T10:48:23.532Z,98788.03
2022-10-22T10:51:15.795Z,98792.50
2022-10-22T10:54:11.939Z,98793.44
2022-10-22T10:56:45.660Z,98793.19
2022-10-22T10:59:30.530Z,98780.19
2022-10-22T11:02:15.711Z,98775.78
2022-10-22T11:05:14.584Z,98780.41
2022-10-22T11:07:53.480Z,98781.00
2022-10-22T11:10:32.852Z,98784.00
2022-10-22T11:13:22.863Z,98790.41
2022-10-22T11:16:09.795Z,98793.28
2022-10-22T11:19:05.900Z,98790.88
2022-10-22T11:21:35.005Z,98786.94
2022-10-22T11:24:21.839Z,98789.13
2022-10-22T11:27:03.927Z,98782.75
2022-10-22T11:29:45.492Z,98788.25
2022-10-22T11:32:19.921Z,98788.03
2022-10-22T11:34:55.068Z,98780.63
2022-10-22T11:37:26.288Z,98785.41
2022-10-22T11:39:59.662Z,98780.41
2022-10-22T11:42:50.809Z,98784.97
2022-10-22T11:45:17.296Z,98790.91
2022-10-22T11:48:10.713Z,98788.13
2022-10-22T11:50:48.337Z,98785.25
2022-10-22T11:53:14.858Z,98786.19
2022-10-22T11:55:51.512Z,98787.78
2022-10-22T11:58:43.755Z,98789.81
2022-10-22T12:01:10.300Z,98780.25
2022-10-22T12:03:59.312Z,98782.44
2022-10-22T12:06:29.273Z,98788.13
2022-10-22T12:09:04.787Z,98788.75
2022-10-22T12:11:47.624Z,98784.41
2022-10-22T12:14:26.779Z,98784.16
2022-10-22T12:17:10.596Z,98785.44
2022-10-22T12:19:41.347Z,98789.34
2022-10-22T12:22:17.323Z,98784.72
2022-10-22T12:24:50.049Z,98776.34
2022-10-22T12:27:38.096Z,98784.75
2022-10-22T12:30:18.552Z,98769.88
2022-10-22T12:32:45.857Z,98772.38
2022-10-22T12:35:20.867Z,98769.19
2022-10-22T12:38:16.032Z,98771.81
2022-10-22T12:40:46.070Z,98773.09
2022-10-22T12:43:24.109Z,98777.81
2022-10-22T12:45:51.776Z,98776.19
2022-10-22T12:48:28.688Z,98779.31
2022-10-22T12:51:00.090Z,98779.09
2022-10-22T12:53:32.102Z,98769.34
2022-10-22T12:56:15.846Z,98767.06
2022-10-22T12:58:48.194Z,98774.63
2022-10-22T13:01:17.628Z,98771.56
2022-10-22T13:03:51.630Z,98777.84
2022-10-22T13:06:18.178Z,98781.47
2022-10-22T13:09:15.169Z,98783.38
2022-10-22T13:12:01.545Z,98780.66
2022-10-22T13:14:32.363Z,98779.78
2022-10-22T13:17:15.546Z,98792.81
2022-10-22T13:20:05.213Z,98796.28
2022-10-22T13:22:37.487Z,98783.91
2022-10-22T13:25:13.318Z,98789.13
2022-10-22T13:27:48.923Z,98799.56
2022-10-22T13:30:34.794Z,98795.81
2022-10-22T13:33:23.612Z,98795.47
2022-10-22T13:35:50.189Z,98786.19
2022-10-22T13:38:20.226Z,98790.06
2022-10-22T13:40:47.198Z,98786.34
2022-10-22T13:43:14.298Z,98790.66
2022-10-22T13:45:41.224Z,98785.66
2022-10-22T13:48:15.727Z,98782.31
2022-10-22T13:50:42.963Z,98787.78
2022-10-22T13:53:18.812Z,98798.09
2022-10-22T13:55:46.386Z,98807.16
2022-10-22T14:00:55.700Z,98800.31
2022-10-22T14:03:31.273Z,98799.78
2022-10-22T14:05:58.380Z,98798.25
2022-10-22T14:08:27.088Z,98801.75
2022-10-22T14:10:54.894Z,98802.63
2022-10-22T14:13:22.003Z,98792.38
2022-10-22T14:15:51.375Z,98793.97
2022-10-22T14:18:27.163Z,98790.97
2022-10-22T14:21:00.193Z,98800.28
2022-10-22T14:23:32.041Z,98795.16
2022-10-22T14:25:59.675Z,98793.59
2022-10-22T14:28:26.420Z,98794.81
2022-10-22T14:30:55.654Z,98794.53
2022-10-22T14:33:32.270Z,98787.34
2022-10-22T14:36:02.455Z,98800.16
2022-10-22T14:38:30.354Z,98803.97
2022-10-22T14:40:57.878Z,98806.41
2022-10-22T14:43:27.987Z,98796.53
2022-10-22T14:45:54.927Z,98807.16
2022-10-22T14:48:21.584Z,98801.75
2022-10-22T14:50:48.550Z,98794.53
2022-10-22T14:53:16.722Z,98800.44
2022-10-22T14:55:44.580Z,98807.50
2022-10-22T14:58:12.247Z,98803.16
2022-10-22T15:00:42.303Z,98807.50
2022-10-22T15:03:09.872Z,98811.63
2022-10-22T15:05:43.234Z,98810.31
2022-10-22T15:08:14.055Z,98810.06
2022-10-22T15:10:41.414Z,98813.75
2022-10-22T15:13:08.064Z,98807.59
2022-10-22T15:15:39.446Z,98810.38
2022-10-22T15:18:07.228Z,98813.88
2022-10-22T15:20:33.821Z,98821.56
2022-10-22T15:23:00.424Z,98820.59
2022-10-22T15:25:26.989Z,98822.78
2022-10-22T15:27:56.526Z,98822.00
2022-10-22T15:30:28.621Z,98822.31
2022-10-22T15:32:55.192Z,98823.44
2022-10-22T15:35:21.761Z,98820.25
2022-10-22T15:37:51.630Z,98813.38
2022-10-22T15:40:18.189Z,98822.72
2022-10-22T15:42:47.201Z,98844.72
2022-10-22T15:45:14.069Z,98837.78
2022-10-22T15:47:47.363Z,98834.44
2022-10-22T15:50:14.617Z,98830.81
2022-10-22T15:52:41.206Z,98830.25
2022-10-22T15:55:10.369Z,98837.78
2022-10-22T15:57:38.222Z,98836.19
2022-10-22T16:00:06.789Z,98839.06
2022-10-22T16:02:33.461Z,98838.28
2022-10-22T16:05:00.099Z,98842.88
2022-10-22T16:07:26.885Z,98839.69
2022-10-22T16:09:58.073Z,98838.22
2022-10-22T16:12:24.712Z,98842.00
2022-10-22T16:14:51.669Z,98840.88
2022-10-22T16:17:18.373Z,98847.41
2022-10-22T16:19:45.045Z,98843.47
2022-10-22T16:22:13.628Z,98836.25
2022-10-22T16:24:40.865Z,98838.25
2022-10-22T16:27:08.633Z,98838.56
2022-10-22T16:29:38.072Z,98847.72
2022-10-22T16:32:05.073Z,98850.13
2022-10-22T16:34:31.645Z,98842.53
2022-10-22T16:36:58.236Z,98847.72
2022-10-22T16:39:25.058Z,98842.88
2022-10-22T16:41:51.714Z,98842.88
2022-10-22T16:44:18.408Z,98849.44
2022-10-22T16:46:44.974Z,98849.41
2022-10-22T16:49:11.822Z,98855.25
2022-10-22T16:51:39.280Z,98853.25
2022-10-22T16:54:08.397Z,98848.09
2022-10-22T16:56:38.037Z,98852.50
2022-10-22T16:59:04.696Z,98860.47
2022-10-22T17:01:31.451Z,98850.63
2022-10-22T17:04:01.853Z,98863.31
2022-10-22T17:06:28.709Z,98857.34
2022-10-22T17:08:55.424Z,98869.84
2022-10-22T17:11:24.756Z,98871.31
2022-10-22T17:13:54.290Z,98876.56
2022-10-22T17:16:24.263Z,98881.66
2022-10-22T17:18:53.028Z,98884.97
2022-10-22T17:21:20.455Z,98878.59
2022-10-22T17:23:47.368Z,98883.44
2022-10-22T17:26:19.511Z,98883.81
2022-10-22T17:28:46.677Z,98884.16
2022-10-22T17:31:23.882Z,98889.38
2022-10-22T17:33:53.416Z,98889.56
2022-10-22T17:36:21.765Z,98898.63
2022-10-22T17:38:52.253Z,98892.84
2022-10-22T17:41:25.430Z,98902.56
2022-10-22T17:43:52.379Z,98899.53
2022-10-22T17:46:27.116Z,98893.94
2022-10-22T17:48:57.420Z,98899.47
2022-10-22T17:51:25.560Z,98900.50
2022-10-22T17:53:52.867Z,98898.25
2022-10-22T17:56:23.981Z,98899.50
2022-10-22T17:58:50.959Z,98902.78
2022-10-22T18:01:32.834Z,98899.34
2022-10-22T18:04:04.101Z,98900.03
2022-10-22T18:06:31.269Z,98909.66
2022-10-22T18:08:58.222Z,98908.16
2022-10-22T18:11:27.537Z,98912.19
2022-10-22T18:13:57.000Z,98912.09
2022-10-22T18:16:24.544Z,98915.72
2022-10-22T18:18:56.671Z,98909.13
2022-10-22T18:21:27.117Z,98905.84
2022-10-22T18:23:54.821Z,98902.41
2022-10-22T18:26:25.847Z,98902.72
2022-10-22T18:28:53.876Z,98909.41
2022-10-22T18:31:24.489Z,98900.16
2022-10-22T18:36:23.805Z,98902.88
2022-10-22T18:39:00.348Z,98907.50
2022-10-22T18:41:29.198Z,98908.28
2022-10-22T18:44:03.130Z,98907.63
2022-10-22T18:46:31.559Z,98903.16
2022-10-22T18:48:59.165Z,98907.97
2022-10-22T18:51:32.441Z,98907.06
2022-10-22T18:54:05.785Z,98905.44
2022-10-22T18:56:46.237Z,98900.06
2022-10-22T18:59:25.221Z,98905.00
2022-10-22T19:01:53.710Z,98897.38
2022-10-22T19:04:20.402Z,98904.69
2022-10-22T19:06:47.243Z,98904.09
2022-10-22T19:09:15.727Z,98905.63
2022-10-22T19:11:44.723Z,98897.81
2022-10-22T19:14:13.011Z,98909.03
2022-10-22T19:16:39.593Z,98897.22
2022-10-22T19:19:07.846Z,98899.16
2022-10-22T19:21:38.041Z,98895.25
2022-10-22T19:24:05.257Z,98900.50
2022-10-22T19:26:32.254Z,98896.44
2022-10-22T19:29:00.004Z,98904.69
2022-10-22T19:31:29.714Z,98905.00
2022-10-22T19:33:56.751Z,98899.19
2022-10-22T19:36:27.344Z,98903.78
2022-10-22T19:38:54.647Z,98902.16
2022-10-22T19:41:23.404Z,98903.50
2022-10-22T19:43:52.847Z,98901.38
2022-10-22T19:46:21.592Z,98908.91
2022-10-22T19:48:48.747Z,98901.38
2022-10-22T19:51:20.364Z,98894.06
2022-10-22T19:53:49.135Z,98895.41
2022-10-22T19:56:20.661Z,98896.03
2022-10-22T19:58:47.495Z,98907.09
2022-10-22T20:01:16.907Z,98910.09
2022-10-22T20:03:43.747Z,98907.06
2022-10-22T20:06:12.844Z,98909.50
2022-10-22T20:08:40.263Z,98912.94
2022-10-22T20:11:17.324Z,98905.91
2022-10-22T20:13:48.006Z,98899.59
2022-10-22T20:16:22.859Z,98904.41
2022-10-22T20:18:50.814Z,98903.03
2022-10-22T20:21:19.177Z,98908.75
2022-10-22T20:23:47.333Z,98902.16
2022-10-22T20:26:14.221Z,98904.25
2022-10-22T20:28:40.904Z,98904.25
2022-10-22T20:31:12.830Z,98916.94
2022-10-22T20:33:39.543Z,98925.34
2022-10-22T20:36:09.572Z,98931.78
2022-10-22T20:41:08.426Z,98916.81
2022-10-22T20:43:35.080Z,98922.34
2022-10-22T20:46:02.982Z,98926.88
2022-10-22T20:48:31.178Z,98931.31
2022-10-22T20:50:59.571Z,98929.94
2022-10-22T20:53:26.927Z,98929.22
2022-10-22T20:55:57.655Z,98932.81
2022-10-22T20:58:26.838Z,98928.59
2022-10-22T21:00:55.291Z,98923.84
2022-10-22T21:03:22.101Z,98924.59
2022-10-22T21:05:48.921Z,98926.88
2022-10-22T21:08:17.444Z,98926.88
2022-10-22T21:10:48.797Z,98915.47
2022-10-22T21:13:16.541Z,98916.41
2022-10-22T21:15:43.121Z,98915.03
2022-10-22T21:18:09.817Z,98906.63
2022-10-22T21:20:38.900Z,98906.06
2022-10-22T21:23:05.630Z,98902.47
2022-10-22T21:25:32.215Z,98908.59
2022-10-22T21:27:58.882Z,98896.91
2022-10-22T21:30:25.455Z,98904.69
2022-10-22T21:32:52.013Z,98895.13
2022-10-22T21:35:18.637Z,98894.81
2022-10-22T21:37:45.179Z,98895.25
2022-10-22T21:40:13.063Z,98902.41
2022-10-22T21:42:39.652Z,98898.06
2022-10-22T21:45:12.063Z,98894.19
2022-10-22T21:47:41.179Z,98908.56
2022-10-22T21:50:08.487Z,98901.34
2022-10-22T21:52:35.090Z,98902.88
2022-10-22T21:55:01.711Z,98901.38
2022-10-22T21:57:28.269Z,98910.06
2022-10-22T21:59:54.876Z,98914.50
2022-10-22T22:04:54.669Z,98913.00
2022-10-22T22:07:22.070Z,98912.44
2022-10-22T22:09:51.024Z,98906.78
2022-10-22T22:12:18.228Z,98909.75
2022-10-22T22:14:44.814Z,98918.25
2022-10-22T22:17:11.495Z,98918.31
2022-10-22T22:19:38.784Z,98918.94
2022-10-22T22:22:05.972Z,98925.66
2022-10-22T22:24:32.788Z,98913.53
2022-10-22T22:26:59.409Z,98923.09
2022-10-22T22:29:25.994Z,98916.19
2022-10-22T22:31:54.938Z,98918.16
2022-10-22T22:34:21.612Z,98910.19
2022-10-22T22:36:49.622Z,98907.94
2022-10-22T22:39:19.812Z,98907.78
2022-10-22T22:41:46.647Z,98910.19
2022-10-22T22:44:13.837Z,98907.41
2022-10-22T22:46:41.008Z,98910.34
2022-10-22T22:49:08.589Z,98903.41
2022-10-22T22:51:35.420Z,98902.91
2022-10-22T22:54:02.404Z,98894.28
2022-10-22T22:56:32.056Z,98889.66
2022-10-22T22:58:59.086Z,98893.03
2022-10-22T23:01:36.154Z,98894.56
2022-10-22T23:04:18.913Z,98891.44
2022-10-22T23:06:46.094Z,98894.69
2022-10-22T23:09:14.958Z,98885.75
2022-10-22T23:11:44.651Z,98888.00
2022-10-22T23:14:14.698Z,98881.88
2022-10-22T23:16:46.085Z,98890.22
2022-10-22T23:19:19.604Z,98870.50
2022-10-22T23:21:50.617Z,98879.03
2022-10-22T23:24:22.224Z,98867.88
2022-10-22T23:26:51.156Z,98868.00
2022-10-22T23:29:19.925Z,98867.34
2022-10-22T23:31:47.999Z,98863.91
2022-10-22T23:36:46.485Z,98871.06
2022-10-22T23:39:17.192Z,98865.22
2022-10-22T23:41:44.160Z,98855.06
2022-10-22T23:44:11.512Z,98862.22
2022-10-22T23:46:38.490Z,98862.44
2022-10-22T23:49:07.468Z,98858.03
2022-10-22T23:51:35.016Z,98858.69
2022-10-22T23:54:07.920Z,98867.09
2022-10-22T23:56:35.518Z,98861.25
2022-10-22T23:59:02.787Z,98865.44
